createdAt,value
2016-12-16T00:00:55.635Z,0
2016-12-16T00:02:05.907Z,0
2016-12-16T00:03:16.202Z,0
2016-12-16T00:04:26.477Z,0
2016-12-16T00:05:35.815Z,0
2016-12-16T00:06:45.776Z,0
2016-12-16T00:07:55.441Z,0
2016-12-16T00:09:05.718Z,0
2016-12-16T00:10:15.677Z,0
2016-12-16T00:11:25.651Z,0
2016-12-16T00:12:35.952Z,0
2016-12-16T00:13:46.221Z,0
2016-12-16T00:14:55.876Z,0
2016-12-16T00:16:05.828Z,0
2016-12-16T00:17:16.125Z,0
2016-12-16T00:18:26.403Z,0
2016-12-16T00:19:36.371Z,0
2016-12-16T00:20:46.022Z,0
2016-12-16T00:21:56.301Z,0
2016-12-16T00:23:06.590Z,0
2016-12-16T00:24:16.256Z,0
2016-12-16T00:25:26.551Z,0
2016-12-16T00:26:36.819Z,0
2016-12-16T00:27:47.083Z,0
2016-12-16T00:28:57.396Z,0
2016-12-16T00:30:07.677Z,0
2016-12-16T00:31:17.651Z,0
2016-12-16T00:32:27.610Z,0
2016-12-16T00:33:37.581Z,0
2016-12-16T00:34:47.846Z,0
2016-12-16T00:35:58.103Z,0
2016-12-16T00:37:08.391Z,0
2016-12-16T00:38:18.355Z,0
2016-12-16T00:39:28.006Z,0
2016-12-16T00:40:37.978Z,0
2016-12-16T00:41:47.622Z,0
2016-12-16T00:42:57.623Z,0
2016-12-16T00:44:06.981Z,0
2016-12-16T00:45:16.944Z,0
2016-12-16T00:46:26.589Z,0
2016-12-16T00:47:36.856Z,0
2016-12-16T00:48:46.541Z,0
2016-12-16T00:49:56.503Z,0
2016-12-16T00:51:06.464Z,0
2016-12-16T00:52:16.733Z,0
2016-12-16T00:53:26.692Z,0
2016-12-16T00:54:36.957Z,0
2016-12-16T00:55:46.612Z,0
2016-12-16T00:56:56.887Z,0
2016-12-16T00:58:06.545Z,0
2016-12-16T00:59:16.839Z,0
2016-12-16T01:00:27.127Z,0
2016-12-16T01:01:37.398Z,0
2016-12-16T01:02:47.373Z,0
2016-12-16T01:03:57.325Z,0
2016-12-16T01:05:06.970Z,0
2016-12-16T01:06:17.249Z,0
2016-12-16T01:07:27.524Z,0
2016-12-16T01:08:37.803Z,0
2016-12-16T01:09:48.077Z,0
2016-12-16T01:10:58.346Z,0
2016-12-16T01:12:08.663Z,0
2016-12-16T01:13:18.941Z,0
2016-12-16T01:14:29.233Z,0
2016-12-16T01:15:39.515Z,0
2016-12-16T01:16:49.780Z,0
2016-12-16T01:17:59.745Z,0
2016-12-16T01:19:09.395Z,0
2016-12-16T01:20:19.050Z,0
2016-12-16T01:21:29.322Z,0
2016-12-16T01:22:39.280Z,0
2016-12-16T01:23:49.242Z,0
2016-12-16T01:24:59.195Z,0
2016-12-16T01:26:09.259Z,0
2016-12-16T01:27:19.533Z,0
2016-12-16T01:28:29.504Z,0
2016-12-16T01:29:39.450Z,0
2016-12-16T01:30:49.411Z,0
2016-12-16T01:31:59.687Z,0
2016-12-16T01:33:09.959Z,0
2016-12-16T01:34:20.228Z,0
2016-12-16T01:35:29.878Z,0
2016-12-16T01:36:39.535Z,0
2016-12-16T01:37:49.799Z,0
2016-12-16T01:38:59.748Z,0
2016-12-16T01:40:10.023Z,0
2016-12-16T01:41:20.288Z,0
2016-12-16T01:42:30.564Z,0
2016-12-16T01:43:40.827Z,0
2016-12-16T01:44:51.257Z,0
2016-12-16T01:46:01.536Z,0
2016-12-16T01:47:11.527Z,0
2016-12-16T01:48:21.520Z,0
2016-12-16T01:49:31.181Z,0
2016-12-16T01:50:40.832Z,0
2016-12-16T01:51:50.784Z,0
2016-12-16T01:53:00.749Z,0
2016-12-16T01:54:11.018Z,0
2016-12-16T01:55:20.973Z,0
2016-12-16T01:56:30.780Z,0
2016-12-16T01:57:40.729Z,0
2016-12-16T01:58:50.716Z,0
2016-12-16T02:00:00.985Z,0
2016-12-16T02:01:11.286Z,0
2016-12-16T02:02:21.551Z,0
2016-12-16T02:03:31.498Z,0
2016-12-16T02:04:41.472Z,0
2016-12-16T02:05:51.430Z,0
2016-12-16T02:07:01.080Z,0
2016-12-16T02:08:11.373Z,0
2016-12-16T02:09:21.347Z,0
2016-12-16T02:10:31.816Z,0
2016-12-16T02:11:41.788Z,0
2016-12-16T02:12:52.067Z,0
2016-12-16T02:14:02.342Z,0
2016-12-16T02:15:12.291Z,0
2016-12-16T02:16:22.246Z,0
2016-12-16T02:17:32.508Z,0
2016-12-16T02:18:42.502Z,0
2016-12-16T02:19:52.463Z,0
2016-12-16T02:21:02.122Z,0
2016-12-16T02:22:12.093Z,0
2016-12-16T02:23:21.758Z,0
2016-12-16T02:24:32.039Z,0
2016-12-16T02:25:42.326Z,0
2016-12-16T02:26:52.636Z,0
2016-12-16T02:28:02.601Z,0
2016-12-16T02:29:12.550Z,0
2016-12-16T02:30:22.819Z,0
2016-12-16T02:31:32.768Z,0
2016-12-16T02:32:43.071Z,0
2016-12-16T02:33:52.765Z,0
2016-12-16T02:35:02.745Z,0
2016-12-16T02:36:12.691Z,0
2016-12-16T02:37:22.652Z,0
2016-12-16T02:38:32.612Z,0
2016-12-16T02:39:42.912Z,0
2016-12-16T02:40:53.184Z,0
2016-12-16T02:42:03.155Z,0
2016-12-16T02:43:13.142Z,0
2016-12-16T02:44:22.175Z,0
2016-12-16T02:45:32.448Z,0
2016-12-16T02:46:42.729Z,0
2016-12-16T02:47:52.688Z,0
2016-12-16T02:49:02.655Z,0
2016-12-16T02:50:12.946Z,0
2016-12-16T02:51:23.219Z,0
2016-12-16T02:52:33.173Z,0
2016-12-16T02:53:43.433Z,0
2016-12-16T02:54:53.708Z,0
2016-12-16T02:56:03.977Z,0
2016-12-16T02:57:14.239Z,0
2016-12-16T02:58:24.059Z,0
2016-12-16T02:59:34.342Z,0
2016-12-16T03:00:44.002Z,0
2016-12-16T03:01:54.262Z,0
2016-12-16T03:03:04.527Z,0
2016-12-16T03:04:14.492Z,0
2016-12-16T03:05:24.758Z,0
2016-12-16T03:06:34.719Z,0
2016-12-16T03:07:44.678Z,0
2016-12-16T03:08:54.962Z,0
2016-12-16T03:10:05.228Z,0
2016-12-16T03:11:14.879Z,0
2016-12-16T03:12:25.145Z,0
2016-12-16T03:13:35.436Z,0
2016-12-16T03:14:45.705Z,0
2016-12-16T03:15:55.366Z,0
2016-12-16T03:17:05.331Z,0
2016-12-16T03:18:15.289Z,0
2016-12-16T03:19:25.551Z,0
2016-12-16T03:20:35.503Z,0
2016-12-16T03:21:45.762Z,0
2016-12-16T03:22:55.727Z,0
2016-12-16T03:24:05.999Z,0
2016-12-16T03:25:15.952Z,0
2016-12-16T03:26:25.919Z,0
2016-12-16T03:27:36.175Z,0
2016-12-16T03:28:46.137Z,0
2016-12-16T03:29:56.412Z,0
2016-12-16T03:31:06.371Z,0
2016-12-16T03:32:16.687Z,0
2016-12-16T03:33:26.664Z,0
2016-12-16T03:34:36.931Z,0
2016-12-16T03:35:46.584Z,0
2016-12-16T03:36:56.543Z,0
2016-12-16T03:38:06.495Z,0
2016-12-16T03:39:16.764Z,0
2016-12-16T03:40:27.020Z,0
2016-12-16T03:41:36.725Z,0
2016-12-16T03:42:46.706Z,0
2016-12-16T03:43:56.668Z,0
2016-12-16T03:45:06.622Z,0
2016-12-16T03:46:16.587Z,0
2016-12-16T03:47:26.856Z,0
2016-12-16T03:48:37.116Z,0
2016-12-16T03:49:47.384Z,0
2016-12-16T03:50:57.647Z,0
2016-12-16T03:52:07.602Z,0
2016-12-16T03:53:18.316Z,0
2016-12-16T03:54:28.293Z,0
2016-12-16T03:55:38.267Z,0
2016-12-16T03:56:48.562Z,0
2016-12-16T03:57:58.824Z,0
2016-12-16T03:59:08.789Z,0
2016-12-16T04:00:18.757Z,0
2016-12-16T04:01:29.064Z,0
2016-12-16T04:02:38.709Z,0
2016-12-16T04:03:48.665Z,0
2016-12-16T04:04:58.305Z,0
2016-12-16T04:06:08.571Z,0
2016-12-16T04:07:18.834Z,0
2016-12-16T04:08:28.476Z,0
2016-12-16T04:09:38.757Z,0
2016-12-16T04:10:49.017Z,0
2016-12-16T04:11:58.971Z,0
2016-12-16T04:13:08.920Z,0
2016-12-16T04:14:18.897Z,0
2016-12-16T04:15:29.192Z,0
2016-12-16T04:16:39.170Z,0
2016-12-16T04:17:49.438Z,0
2016-12-16T04:18:59.403Z,0
2016-12-16T04:20:09.674Z,0
2016-12-16T04:21:19.944Z,0
2016-12-16T04:22:29.595Z,0
2016-12-16T04:23:40.097Z,0
2016-12-16T04:24:50.059Z,0
2016-12-16T04:26:00.328Z,0
2016-12-16T04:27:10.299Z,0
2016-12-16T04:28:20.260Z,0
2016-12-16T04:29:30.526Z,0
2016-12-16T04:30:40.538Z,0
2016-12-16T04:31:50.491Z,0
2016-12-16T04:33:00.443Z,0
2016-12-16T04:34:10.408Z,0
2016-12-16T04:35:20.366Z,0
2016-12-16T04:36:30.331Z,0
2016-12-16T04:37:40.289Z,0
2016-12-16T04:38:49.941Z,0
2016-12-16T04:39:59.585Z,0
2016-12-16T04:41:09.534Z,0
2016-12-16T04:42:19.496Z,0
2016-12-16T04:43:29.768Z,0
2016-12-16T04:44:39.736Z,0
2016-12-16T04:45:50.024Z,0
2016-12-16T04:46:59.979Z,0
2016-12-16T04:48:10.279Z,0
2016-12-16T04:49:20.235Z,0
2016-12-16T04:50:30.513Z,0
2016-12-16T04:51:40.481Z,0
2016-12-16T04:52:50.742Z,0
2016-12-16T04:54:00.702Z,0
2016-12-16T04:55:10.670Z,0
2016-12-16T04:56:20.641Z,0
2016-12-16T04:57:30.904Z,0
2016-12-16T04:58:40.878Z,0
2016-12-16T04:59:50.522Z,0
2016-12-16T05:01:00.488Z,0
2016-12-16T05:02:10.478Z,0
2016-12-16T05:03:20.775Z,0
2016-12-16T05:04:31.045Z,0
2016-12-16T05:05:41.060Z,0
2016-12-16T05:06:51.329Z,0
2016-12-16T05:08:01.714Z,0
2016-12-16T05:09:11.989Z,0
2016-12-16T05:10:21.636Z,0
2016-12-16T05:11:31.281Z,0
2016-12-16T05:12:41.247Z,0
2016-12-16T05:13:51.208Z,0
2016-12-16T05:15:01.480Z,0
2016-12-16T05:16:11.765Z,0
2016-12-16T05:17:21.733Z,0
2016-12-16T05:18:31.077Z,0
2016-12-16T05:19:41.332Z,0
2016-12-16T05:20:51.598Z,0
2016-12-16T05:22:01.874Z,0
2016-12-16T05:23:12.146Z,0
2016-12-16T05:24:22.418Z,0
2016-12-16T05:25:32.386Z,0
2016-12-16T05:26:42.350Z,0
2016-12-16T05:27:52.312Z,0
2016-12-16T05:29:02.280Z,0
2016-12-16T05:30:12.543Z,0
2016-12-16T05:31:22.497Z,0
2016-12-16T05:32:32.772Z,0
2016-12-16T05:33:42.419Z,0
2016-12-16T05:34:52.693Z,0
2016-12-16T05:36:02.641Z,0
2016-12-16T05:37:12.284Z,0
2016-12-16T05:38:22.241Z,0
2016-12-16T05:39:32.200Z,0
2016-12-16T05:40:42.469Z,0
2016-12-16T05:41:51.813Z,0
2016-12-16T05:43:02.088Z,0
2016-12-16T05:44:12.356Z,0
2016-12-16T05:45:22.622Z,0
2016-12-16T05:46:32.283Z,0
2016-12-16T05:47:42.251Z,0
2016-12-16T05:48:52.520Z,0
2016-12-16T05:50:02.798Z,0
2016-12-16T05:51:13.086Z,0
2016-12-16T05:52:23.365Z,0
2016-12-16T05:53:33.630Z,0
2016-12-16T05:54:43.605Z,0
2016-12-16T05:55:53.889Z,0
2016-12-16T05:57:03.224Z,0
2016-12-16T05:58:13.496Z,0
2016-12-16T05:59:23.785Z,0
2016-12-16T06:00:33.749Z,0
2016-12-16T06:01:43.710Z,0
2016-12-16T06:02:53.355Z,0
2016-12-16T06:04:03.323Z,0
2016-12-16T06:05:13.282Z,0
2016-12-16T06:06:23.249Z,0
2016-12-16T06:07:33.531Z,0
2016-12-16T06:08:43.509Z,0
2016-12-16T06:09:53.774Z,0
2016-12-16T06:11:03.426Z,0
2016-12-16T06:12:13.713Z,0
2016-12-16T06:13:23.359Z,0
2016-12-16T06:14:33.636Z,0
2016-12-16T06:15:43.601Z,0
2016-12-16T06:16:53.873Z,0
2016-12-16T06:18:03.852Z,0
2016-12-16T06:19:13.541Z,0
2016-12-16T06:20:23.518Z,0
2016-12-16T06:21:33.848Z,0
2016-12-16T06:22:43.816Z,0
2016-12-16T06:23:54.088Z,0
2016-12-16T06:25:04.373Z,0
2016-12-16T06:26:14.337Z,0
2016-12-16T06:27:24.629Z,0
2016-12-16T06:28:34.587Z,0
2016-12-16T06:29:44.859Z,0
2016-12-16T06:30:54.840Z,0
2016-12-16T06:32:05.115Z,0
2016-12-16T06:33:14.763Z,0
2016-12-16T06:34:24.728Z,0
2016-12-16T06:35:35.017Z,0
2016-12-16T06:36:44.975Z,0
2016-12-16T06:37:54.942Z,0
2016-12-16T06:39:04.965Z,0
2016-12-16T06:40:14.613Z,0
2016-12-16T06:41:24.572Z,0
2016-12-16T06:42:34.539Z,4
2016-12-16T06:43:44.866Z,4
2016-12-16T06:44:55.132Z,0
2016-12-16T06:46:05.410Z,0
2016-12-16T06:47:15.390Z,4
2016-12-16T06:48:25.365Z,0
2016-12-16T06:49:35.634Z,4
2016-12-16T06:50:46.404Z,4
2016-12-16T06:51:56.692Z,4
2016-12-16T06:53:06.686Z,4
2016-12-16T06:54:16.640Z,8
2016-12-16T06:55:26.921Z,8
2016-12-16T06:56:36.876Z,4
2016-12-16T06:57:47.182Z,8
2016-12-16T06:58:57.509Z,8
2016-12-16T07:00:07.494Z,12
2016-12-16T07:01:17.148Z,12
2016-12-16T07:02:27.430Z,16
2016-12-16T07:03:37.720Z,16
2016-12-16T07:04:48.008Z,16
2016-12-16T07:05:57.657Z,16
2016-12-16T07:07:07.309Z,20
2016-12-16T07:08:17.275Z,20
2016-12-16T07:09:27.231Z,24
2016-12-16T07:10:37.512Z,28
2016-12-16T07:11:47.790Z,28
2016-12-16T07:12:58.068Z,28
2016-12-16T07:14:07.750Z,32
2016-12-16T07:15:18.024Z,36
2016-12-16T07:16:28.305Z,40
2016-12-16T07:17:37.733Z,44
2016-12-16T07:18:48.104Z,44
2016-12-16T07:19:58.076Z,48
2016-12-16T07:21:08.050Z,48
2016-12-16T07:22:18.037Z,56
2016-12-16T07:23:28.383Z,56
2016-12-16T07:24:38.678Z,60
2016-12-16T07:25:48.953Z,68
2016-12-16T07:26:58.934Z,68
2016-12-16T07:28:09.211Z,72
2016-12-16T07:29:19.483Z,76
2016-12-16T07:30:29.772Z,84
2016-12-16T07:31:39.746Z,88
2016-12-16T07:32:50.053Z,92
2016-12-16T07:34:00.005Z,96
2016-12-16T07:35:09.669Z,104
2016-12-16T07:36:19.337Z,108
2016-12-16T07:37:28.991Z,112
2016-12-16T07:38:39.263Z,116
2016-12-16T07:39:48.907Z,124
2016-12-16T07:40:59.183Z,128
2016-12-16T07:42:08.856Z,132
2016-12-16T07:43:19.144Z,136
2016-12-16T07:44:29.451Z,140
2016-12-16T07:45:39.726Z,148
2016-12-16T07:46:49.720Z,148
2016-12-16T07:47:59.368Z,152
2016-12-16T07:49:09.695Z,160
2016-12-16T07:50:19.675Z,164
2016-12-16T07:51:29.663Z,168
2016-12-16T07:52:39.333Z,172
2016-12-16T07:53:49.649Z,180
2016-12-16T07:54:59.648Z,180
2016-12-16T07:56:09.663Z,184
2016-12-16T07:57:19.649Z,192
2016-12-16T07:58:29.682Z,192
2016-12-16T07:59:40.057Z,200
2016-12-16T08:00:50.404Z,204
2016-12-16T08:02:00.385Z,208
2016-12-16T08:03:10.385Z,212
2016-12-16T08:04:20.705Z,216
2016-12-16T08:05:30.408Z,220
2016-12-16T08:06:40.078Z,220
2016-12-16T08:07:50.402Z,228
2016-12-16T08:09:00.628Z,232
2016-12-16T08:10:10.961Z,236
2016-12-16T08:11:21.181Z,240
2016-12-16T08:12:30.554Z,244
2016-12-16T08:13:40.557Z,244
2016-12-16T08:14:51.090Z,248
2016-12-16T08:16:00.764Z,252
2016-12-16T08:17:12.034Z,256
2016-12-16T08:18:21.710Z,256
2016-12-16T08:19:31.711Z,264
2016-12-16T08:20:42.059Z,264
2016-12-16T08:21:51.760Z,264
2016-12-16T08:23:02.064Z,264
2016-12-16T08:24:12.046Z,264
2016-12-16T08:25:22.030Z,268
2016-12-16T08:26:31.386Z,276
2016-12-16T08:27:41.681Z,280
2016-12-16T08:28:51.653Z,288
2016-12-16T08:30:01.970Z,292
2016-12-16T08:31:11.950Z,300
2016-12-16T08:32:21.332Z,300
2016-12-16T08:33:31.300Z,300
2016-12-16T08:34:40.965Z,308
2016-12-16T08:35:51.250Z,308
2016-12-16T08:37:01.527Z,308
2016-12-16T08:38:11.499Z,312
2016-12-16T08:39:21.469Z,312
2016-12-16T08:40:31.422Z,312
2016-12-16T08:41:41.381Z,316
2016-12-16T08:42:51.678Z,320
2016-12-16T08:44:01.975Z,324
2016-12-16T08:45:12.253Z,324
2016-12-16T08:46:22.561Z,324
2016-12-16T08:47:32.534Z,328
2016-12-16T08:48:42.814Z,328
2016-12-16T08:49:52.813Z,328
2016-12-16T08:51:03.085Z,332
2016-12-16T08:52:13.383Z,332
2016-12-16T08:53:23.344Z,332
2016-12-16T08:54:33.319Z,336
2016-12-16T08:55:42.968Z,336
2016-12-16T08:56:53.253Z,336
2016-12-16T08:58:03.592Z,340
2016-12-16T08:59:13.262Z,340
2016-12-16T09:00:23.545Z,340
2016-12-16T09:01:34.119Z,344
2016-12-16T09:02:44.087Z,344
2016-12-16T09:03:54.061Z,344
2016-12-16T09:05:04.343Z,348
2016-12-16T09:06:14.610Z,348
2016-12-16T09:07:24.577Z,352
2016-12-16T09:08:34.244Z,348
2016-12-16T09:09:43.886Z,352
2016-12-16T09:10:53.858Z,352
2016-12-16T09:12:03.835Z,356
2016-12-16T09:13:14.119Z,356
2016-12-16T09:14:23.770Z,356
2016-12-16T09:15:33.759Z,356
2016-12-16T09:16:43.720Z,360
2016-12-16T09:17:53.694Z,360
2016-12-16T09:19:03.976Z,360
2016-12-16T09:20:13.951Z,360
2016-12-16T09:21:23.950Z,364
2016-12-16T09:22:33.918Z,368
2016-12-16T09:23:44.206Z,368
2016-12-16T09:24:54.184Z,376
2016-12-16T09:26:04.497Z,380
2016-12-16T09:27:14.462Z,384
2016-12-16T09:28:24.728Z,384
2016-12-16T09:29:35.026Z,384
2016-12-16T09:30:44.990Z,384
2016-12-16T09:31:54.670Z,388
2016-12-16T09:33:05.005Z,384
2016-12-16T09:34:14.990Z,388
2016-12-16T09:35:25.507Z,388
2016-12-16T09:36:35.170Z,388
2016-12-16T09:37:45.466Z,392
2016-12-16T09:38:55.736Z,400
2016-12-16T09:40:05.406Z,396
2016-12-16T09:41:15.048Z,400
2016-12-16T09:42:25.032Z,400
2016-12-16T09:43:35.007Z,404
2016-12-16T09:44:45.284Z,404
2016-12-16T09:45:55.572Z,408
2016-12-16T09:47:06.106Z,408
2016-12-16T09:48:16.078Z,408
2016-12-16T09:49:25.736Z,408
2016-12-16T09:50:36.037Z,412
2016-12-16T09:51:46.004Z,412
2016-12-16T09:52:56.299Z,412
2016-12-16T09:54:06.574Z,416
2016-12-16T09:55:16.868Z,420
2016-12-16T09:56:27.150Z,420
2016-12-16T09:57:37.435Z,428
2016-12-16T09:58:47.396Z,432
2016-12-16T09:59:57.381Z,432
2016-12-16T10:01:07.361Z,436
2016-12-16T10:02:17.355Z,440
2016-12-16T10:03:27.329Z,440
2016-12-16T10:04:37.006Z,440
2016-12-16T10:05:47.342Z,444
2016-12-16T10:06:57.323Z,444
2016-12-16T10:08:07.602Z,444
2016-12-16T10:09:17.602Z,444
2016-12-16T10:10:27.259Z,448
2016-12-16T10:11:37.253Z,448
2016-12-16T10:12:47.227Z,448
2016-12-16T10:13:57.215Z,448
2016-12-16T10:15:07.522Z,452
2016-12-16T10:16:17.495Z,448
2016-12-16T10:17:27.771Z,452
2016-12-16T10:18:38.047Z,452
2016-12-16T10:19:48.390Z,452
2016-12-16T10:20:58.369Z,452
2016-12-16T10:22:08.676Z,448
2016-12-16T10:23:18.641Z,452
2016-12-16T10:24:28.632Z,448
2016-12-16T10:25:39.051Z,448
2016-12-16T10:26:48.714Z,448
2016-12-16T10:27:58.699Z,448
2016-12-16T10:29:09.015Z,448
2016-12-16T10:30:18.716Z,448
2016-12-16T10:31:28.727Z,448
2016-12-16T10:32:38.703Z,444
2016-12-16T10:33:48.723Z,452
2016-12-16T10:34:59.031Z,452
2016-12-16T10:36:09.351Z,452
2016-12-16T10:37:19.627Z,448
2016-12-16T10:38:29.904Z,448
2016-12-16T10:39:39.594Z,448
2016-12-16T10:40:49.895Z,444
2016-12-16T10:42:00.188Z,444
2016-12-16T10:43:09.850Z,444
2016-12-16T10:44:20.127Z,444
2016-12-16T10:45:30.111Z,444
2016-12-16T10:46:40.073Z,444
2016-12-16T10:47:50.082Z,444
2016-12-16T10:49:00.342Z,440
2016-12-16T10:50:10.624Z,440
2016-12-16T10:51:20.590Z,444
2016-12-16T10:52:30.569Z,444
2016-12-16T10:53:40.818Z,444
2016-12-16T10:54:50.872Z,444
2016-12-16T10:56:01.148Z,444
2016-12-16T10:57:11.115Z,444
2016-12-16T10:58:21.423Z,444
2016-12-16T10:59:31.400Z,440
2016-12-16T11:00:41.442Z,440
2016-12-16T11:01:51.089Z,440
2016-12-16T11:03:01.370Z,436
2016-12-16T11:04:11.339Z,436
2016-12-16T11:05:20.992Z,436
2016-12-16T11:06:30.960Z,436
2016-12-16T11:07:40.935Z,436
2016-12-16T11:08:51.201Z,436
2016-12-16T11:10:01.166Z,436
2016-12-16T11:11:11.460Z,436
2016-12-16T11:12:21.169Z,436
2016-12-16T11:13:31.442Z,436
2016-12-16T11:14:41.111Z,436
2016-12-16T11:15:51.387Z,440
2016-12-16T11:17:01.050Z,440
2016-12-16T11:18:11.329Z,436
2016-12-16T11:19:20.987Z,436
2016-12-16T11:20:31.265Z,436
2016-12-16T11:21:41.546Z,432
2016-12-16T11:22:51.204Z,432
2016-12-16T11:24:01.534Z,432
2016-12-16T11:25:11.819Z,436
2016-12-16T11:26:21.819Z,436
2016-12-16T11:27:31.812Z,432
2016-12-16T11:28:42.110Z,432
2016-12-16T11:29:52.076Z,428
2016-12-16T11:31:02.366Z,428
2016-12-16T11:32:12.639Z,428
2016-12-16T11:33:22.609Z,432
2016-12-16T11:34:32.580Z,432
2016-12-16T11:35:42.540Z,428
2016-12-16T11:36:52.904Z,428
2016-12-16T11:38:02.907Z,428
2016-12-16T11:39:12.562Z,424
2016-12-16T11:40:22.568Z,424
2016-12-16T11:41:32.852Z,424
2016-12-16T11:42:42.508Z,424
2016-12-16T11:43:52.799Z,424
2016-12-16T11:45:02.771Z,424
2016-12-16T11:46:13.067Z,424
2016-12-16T11:47:23.064Z,424
2016-12-16T11:48:33.055Z,420
2016-12-16T11:49:43.349Z,420
2016-12-16T11:50:53.653Z,420
2016-12-16T11:52:03.998Z,416
2016-12-16T11:53:13.723Z,412
2016-12-16T11:54:23.410Z,416
2016-12-16T11:55:33.388Z,416
2016-12-16T11:56:43.113Z,416
2016-12-16T11:57:52.771Z,416
2016-12-16T11:59:03.103Z,416
2016-12-16T12:00:12.479Z,416
2016-12-16T12:01:22.757Z,416
2016-12-16T12:02:32.141Z,416
2016-12-16T12:03:42.428Z,416
2016-12-16T12:04:52.717Z,416
2016-12-16T12:06:02.390Z,416
2016-12-16T12:07:12.633Z,412
2016-12-16T12:08:22.620Z,416
2016-12-16T12:09:32.900Z,416
2016-12-16T12:10:42.260Z,420
2016-12-16T12:11:52.564Z,420
2016-12-16T12:13:02.887Z,420
2016-12-16T12:14:13.171Z,420
2016-12-16T12:15:23.155Z,420
2016-12-16T12:16:33.117Z,420
2016-12-16T12:17:43.399Z,424
2016-12-16T12:18:53.421Z,424
2016-12-16T12:20:03.713Z,424
2016-12-16T12:21:13.694Z,428
2016-12-16T12:22:23.987Z,424
2016-12-16T12:23:34.260Z,424
2016-12-16T12:24:44.263Z,424
2016-12-16T12:25:54.241Z,416
2016-12-16T12:27:04.276Z,420
2016-12-16T12:28:14.561Z,416
2016-12-16T12:29:24.536Z,408
2016-12-16T12:30:34.810Z,404
2016-12-16T12:31:45.092Z,400
2016-12-16T12:32:55.063Z,396
2016-12-16T12:34:05.345Z,396
2016-12-16T12:35:15.655Z,388
2016-12-16T12:36:25.950Z,388
2016-12-16T12:37:35.934Z,384
2016-12-16T12:38:45.633Z,388
2016-12-16T12:39:55.304Z,384
2016-12-16T12:41:05.313Z,380
2016-12-16T12:42:15.599Z,376
2016-12-16T12:43:25.899Z,372
2016-12-16T12:44:35.883Z,364
2016-12-16T12:45:46.165Z,360
2016-12-16T12:46:56.134Z,356
2016-12-16T12:48:05.797Z,356
2016-12-16T12:49:15.475Z,356
2016-12-16T12:50:25.496Z,356
2016-12-16T12:51:35.198Z,352
2016-12-16T12:52:45.163Z,352
2016-12-16T12:53:55.144Z,348
2016-12-16T12:55:05.451Z,348
2016-12-16T12:56:15.113Z,344
2016-12-16T12:57:25.394Z,344
2016-12-16T12:58:35.375Z,344
2016-12-16T12:59:45.661Z,340
2016-12-16T13:00:55.625Z,340
2016-12-16T13:02:05.603Z,340
2016-12-16T13:03:15.878Z,336
2016-12-16T13:04:26.156Z,332
2016-12-16T13:05:36.440Z,328
2016-12-16T13:06:46.725Z,324
2016-12-16T13:07:56.697Z,324
2016-12-16T13:09:06.655Z,320
2016-12-16T13:10:16.306Z,316
2016-12-16T13:11:26.281Z,316
2016-12-16T13:12:35.941Z,308
2016-12-16T13:13:45.929Z,308
2016-12-16T13:14:56.221Z,304
2016-12-16T13:16:05.919Z,296
2016-12-16T13:17:15.256Z,292
2016-12-16T13:18:25.542Z,292
2016-12-16T13:19:34.579Z,292
2016-12-16T13:20:44.870Z,284
2016-12-16T13:21:54.841Z,280
2016-12-16T13:23:05.114Z,272
2016-12-16T13:24:15.078Z,268
2016-12-16T13:25:25.360Z,264
2016-12-16T13:26:35.059Z,260
2016-12-16T13:27:45.023Z,256
2016-12-16T13:28:55.321Z,256
2016-12-16T13:30:05.328Z,256
2016-12-16T13:31:15.688Z,252
2016-12-16T13:32:25.980Z,252
2016-12-16T13:33:36.294Z,248
2016-12-16T13:34:46.009Z,248
2016-12-16T13:35:56.031Z,240
2016-12-16T13:37:06.312Z,240
2016-12-16T13:38:16.603Z,232
2016-12-16T13:39:26.271Z,224
2016-12-16T13:40:36.252Z,220
2016-12-16T13:41:46.211Z,216
2016-12-16T13:42:56.507Z,216
2016-12-16T13:44:06.200Z,208
2016-12-16T13:45:15.887Z,208
2016-12-16T13:46:25.884Z,204
2016-12-16T13:47:35.893Z,204
2016-12-16T13:48:46.181Z,196
2016-12-16T13:49:56.155Z,200
2016-12-16T13:51:06.127Z,196
2016-12-16T13:52:16.450Z,196
2016-12-16T13:53:26.434Z,192
2016-12-16T13:54:36.396Z,188
2016-12-16T13:55:46.674Z,188
2016-12-16T13:56:56.657Z,184
2016-12-16T13:58:06.948Z,180
2016-12-16T13:59:17.223Z,180
2016-12-16T14:00:27.255Z,176
2016-12-16T14:01:37.246Z,172
2016-12-16T14:02:47.550Z,172
2016-12-16T14:03:58.097Z,164
2016-12-16T14:05:08.076Z,164
2016-12-16T14:06:18.381Z,160
2016-12-16T14:07:28.680Z,160
2016-12-16T14:08:38.980Z,156
2016-12-16T14:09:48.949Z,152
2016-12-16T14:10:58.923Z,148
2016-12-16T14:12:08.929Z,148
2016-12-16T14:13:18.910Z,144
2016-12-16T14:14:29.195Z,140
2016-12-16T14:15:39.173Z,140
2016-12-16T14:16:49.162Z,136
2016-12-16T14:17:59.457Z,132
2016-12-16T14:19:09.451Z,128
2016-12-16T14:20:19.723Z,124
2016-12-16T14:21:29.697Z,120
2016-12-16T14:22:40.014Z,116
2016-12-16T14:23:49.668Z,108
2016-12-16T14:24:59.643Z,104
2016-12-16T14:26:09.307Z,100
2016-12-16T14:27:19.276Z,96
2016-12-16T14:28:29.273Z,92
2016-12-16T14:29:39.561Z,88
2016-12-16T14:30:49.537Z,84
2016-12-16T14:31:59.512Z,80
2016-12-16T14:33:09.793Z,76
2016-12-16T14:34:19.757Z,68
2016-12-16T14:35:29.156Z,68
2016-12-16T14:36:39.448Z,60
2016-12-16T14:37:49.742Z,60
2016-12-16T14:39:00.049Z,56
2016-12-16T14:40:10.043Z,48
2016-12-16T14:41:20.334Z,48
2016-12-16T14:42:30.596Z,44
2016-12-16T14:43:40.567Z,40
2016-12-16T14:44:50.868Z,40
2016-12-16T14:46:01.188Z,36
2016-12-16T14:47:11.171Z,32
2016-12-16T14:48:21.463Z,32
2016-12-16T14:49:31.428Z,28
2016-12-16T14:50:41.083Z,24
2016-12-16T14:51:51.360Z,24
2016-12-16T14:53:01.702Z,20
2016-12-16T14:54:11.685Z,20
2016-12-16T14:55:21.674Z,20
2016-12-16T14:56:31.709Z,16
2016-12-16T14:57:41.684Z,16
2016-12-16T14:58:52.004Z,12
2016-12-16T15:00:01.981Z,12
2016-12-16T15:01:11.962Z,8
2016-12-16T15:02:22.244Z,8
2016-12-16T15:03:32.538Z,4
2016-12-16T15:04:42.851Z,4
2016-12-16T15:05:52.826Z,4
2016-12-16T15:07:03.131Z,4
2016-12-16T15:08:13.097Z,4
2016-12-16T15:09:23.408Z,4
2016-12-16T15:10:32.810Z,4
2016-12-16T15:11:43.104Z,4
2016-12-16T15:12:53.082Z,0
2016-12-16T15:14:02.752Z,4
2016-12-16T15:15:12.736Z,0
2016-12-16T15:16:23.027Z,0
2016-12-16T15:17:33.005Z,0
2016-12-16T15:18:43.017Z,0
2016-12-16T15:19:53.360Z,0
2016-12-16T15:21:03.664Z,0
2016-12-16T15:22:13.328Z,0
2016-12-16T15:23:23.311Z,0
2016-12-16T15:24:33.591Z,0
2016-12-16T15:25:43.890Z,0
2016-12-16T15:26:53.548Z,0
2016-12-16T15:28:03.207Z,0
2016-12-16T15:29:13.488Z,0
2016-12-16T15:30:23.757Z,0
2016-12-16T15:31:33.741Z,0
2016-12-16T15:32:43.705Z,0
2016-12-16T15:33:53.993Z,0
2016-12-16T15:35:04.275Z,0
2016-12-16T15:36:14.553Z,0
2016-12-16T15:37:24.515Z,0
2016-12-16T15:38:34.483Z,0
2016-12-16T15:39:44.662Z,0
2016-12-16T15:40:54.636Z,0
2016-12-16T15:42:04.614Z,0
2016-12-16T15:43:14.604Z,0
2016-12-16T15:44:24.275Z,0
2016-12-16T15:45:34.576Z,0
2016-12-16T15:46:44.838Z,0
2016-12-16T15:47:55.129Z,0
2016-12-16T15:49:05.123Z,0
2016-12-16T15:50:14.784Z,0
2016-12-16T15:51:25.046Z,0
2016-12-16T15:52:35.328Z,0
2016-12-16T15:53:44.691Z,0
2016-12-16T15:54:54.979Z,0
2016-12-16T15:56:04.938Z,0
2016-12-16T15:57:15.267Z,0
2016-12-16T15:58:25.561Z,0
2016-12-16T15:59:35.530Z,0
2016-12-16T16:00:45.494Z,0
2016-12-16T16:01:55.462Z,0
2016-12-16T16:03:05.731Z,0
2016-12-16T16:04:15.996Z,0
2016-12-16T16:05:25.988Z,0
2016-12-16T16:06:35.949Z,0
2016-12-16T16:07:46.227Z,0
2016-12-16T16:08:56.198Z,0
2016-12-16T16:10:06.172Z,0
2016-12-16T16:11:16.124Z,0
2016-12-16T16:12:26.096Z,0
2016-12-16T16:13:36.379Z,0
2016-12-16T16:14:46.665Z,0
2016-12-16T16:15:56.639Z,0
2016-12-16T16:17:06.918Z,0
2016-12-16T16:18:16.896Z,0
2016-12-16T16:19:26.861Z,0
2016-12-16T16:20:36.848Z,0
2016-12-16T16:21:46.813Z,0
2016-12-16T16:22:56.483Z,0
2016-12-16T16:24:06.772Z,0
2016-12-16T16:25:16.778Z,0
2016-12-16T16:26:27.106Z,0
2016-12-16T16:27:37.058Z,0
2016-12-16T16:28:47.333Z,0
2016-12-16T16:29:57.617Z,0
2016-12-16T16:31:07.591Z,0
2016-12-16T16:32:17.879Z,0
2016-12-16T16:33:27.851Z,0
2016-12-16T16:34:38.161Z,0
2016-12-16T16:35:48.138Z,0
2016-12-16T16:36:58.435Z,0
2016-12-16T16:38:08.773Z,0
2016-12-16T16:39:18.737Z,0
2016-12-16T16:40:29.040Z,0
2016-12-16T16:41:39.007Z,0
2016-12-16T16:42:49.291Z,0